Latest Weather Observations for Strahan

IDT60801

Issued at 7:51 am EDT Monday 17 December 2018 (issued every 10 minutes, with the page automatically refreshed every 10 minutes)

About weather observations | Map of weather stations | Latest weather observations for TAS | Other Formats
Station Details ID: 097072 Name: STRAHAN AERODROME Lat: -42.16 Lon: 145.29 Height: 21.0 m
Data from the previous 72 hours. | See also: Recent months at Strahan
Date/Time
EDT
Temp
°C
App
Temp
°C
Dew
Point
°C
Rel
Hum
%
Delta-T
°C
Wind Press
QNH
hPa
Press
MSL
hPa
Rain since
9am
mm
Dir  Spd
km/h
Gust
km/h
Spd
kts
Gust
kts
17/07:30am 15.3 13.0 14.7 96 0.3 SSW 20 26 11 14 1006.9 1006.9 8.0
17/07:01am 15.5 13.9 14.9 96 0.3 SSW 17 26 9 14 1006.2 1006.2 8.0
17/07:00am 15.5 13.9 14.9 96 0.3 SSW 17 26 9 14 1006.2 1006.2 8.0
17/06:30am 15.5 15.4 14.9 96 0.3 WSW 9 11 5 6 1006.1 1006.1 7.6
17/06:00am 15.3 14.7 14.7 96 0.3 WSW 11 13 6 7 1005.7 1005.7 7.4
17/05:30am 15.4 15.2 14.8 96 0.3 N 9 11 5 6 1005.3 1005.3 7.4
17/05:00am 15.3 14.7 14.7 96 0.3 NW 11 13 6 7 1004.9 1004.9 7.0
17/04:30am 15.2 13.8 14.6 96 0.3 NW 15 20 8 11 1004.8 1004.8 6.4
17/04:00am 15.0 14.3 14.4 96 0.3 N 11 15 6 8 1004.6 1004.6 5.6
17/03:30am 15.2 14.2 14.6 96 0.3 N 13 19 7 10 1004.7 1004.7 5.2
17/03:00am 15.4 14.1 14.8 96 0.3 NNW 15 22 8 12 1004.8 1004.8 5.0
17/02:30am 15.6 13.9 14.6 94 0.6 NNW 17 20 9 11 1005.0 1005.0 4.6
17/02:23am 15.7 14.0 14.7 94 0.6 NNW 17 20 9 11 1004.9 1004.9 4.6
17/02:00am 15.7 15.1 14.6 93 0.6 N 11 15 6 8 1005.1 1005.1 4.6
17/01:30am 15.9 14.6 14.9 94 0.6 NNW 15 20 8 11 1005.2 1005.2 4.6
17/01:00am 16.0 15.2 15.0 94 0.6 NNW 13 15 7 8 1005.3 1005.3 4.6
17/12:50am 16.0 15.5 15.0 94 0.6 N 11 15 6 8 1005.3 1005.3 4.6
17/12:34am 16.1 15.7 15.1 94 0.6 NNW 11 13 6 7 1005.5 1005.5 4.6
17/12:30am 16.1 15.7 15.1 94 0.6 NNW 11 13 6 7 1005.5 1005.5 4.6
17/12:00am 16.0 14.8 15.0 94 0.6 NW 15 19 8 10 1005.5 1005.5 4.6
 
Date/Time
EDT
Temp
°C
App
Temp
°C
Dew
Point
°C
Rel
Hum
%
Delta-T
°C
Wind Press
QNH
hPa
Press
MSL
hPa
Rain since
9am
mm
Dir  Spd
km/h
Gust
km/h
Spd
kts
Gust
kts
16/11:30pm 16.2 15.9 15.4 95 0.5 NNW 11 13 6 7 1005.4 1005.4 4.6
16/11:00pm 16.2 15.5 15.4 95 0.5 NNW 13 17 7 9 1005.2 1005.2 4.6
16/10:30pm 16.5 15.9 15.7 95 0.5 NNW 13 17 7 9 1005.2 1005.2 4.6
16/10:00pm 16.5 15.9 15.7 95 0.5 NNW 13 15 7 8 1005.4 1005.4 4.6
16/09:30pm 16.6 16.0 15.6 94 0.6 NNW 13 17 7 9 1005.5 1005.5 4.6
16/09:00pm 16.8 16.3 15.8 94 0.6 NW 13 17 7 9 1005.2 1005.2 4.6
16/08:30pm 16.9 15.9 15.6 92 0.8 NW 15 19 8 10 1005.0 1005.0 4.6
16/08:14pm 17.0 15.6 15.5 91 0.9 NW 17 20 9 11 1004.8 1004.8 4.6
16/08:00pm 17.1 15.6 15.4 90 1.0 NW 17 20 9 11 1004.7 1004.7 4.6
16/07:30pm 17.4 15.8 15.0 86 1.4 NW 17 20 9 11 1004.4 1004.4 4.6
16/07:00pm 18.0 16.4 14.9 82 1.8 WNW 17 20 9 11 1004.3 1004.3 4.6
16/06:30pm 19.8 19.2 15.7 77 2.4 WNW 13 15 7 8 1003.7 1003.7 4.6
16/06:00pm 18.9 16.7 15.0 78 2.3 WNW 20 26 11 14 1003.4 1003.4 4.6
16/05:30pm 20.5 20.1 15.3 72 3.1 NNE 11 15 6 8 1003.2 1003.2 4.6
16/05:10pm 20.4 20.6 16.8 80 2.2 NE 11 17 6 9 1003.2 1003.2 4.6
16/05:00pm 19.7 19.7 16.2 80 2.1 NE 11 15 6 8 1003.1 1003.1 4.6
16/04:30pm 18.4 19.1 16.2 87 1.3 NE 7 9 4 5 1003.5 1003.5 4.6
16/04:08pm 18.0 18.7 16.2 89 1.1 NE 7 13 4 7 1003.8 1003.8 4.6
16/04:00pm 17.5 17.7 15.7 89 1.1 NE 9 13 5 7 1003.8 1003.8 4.6
16/03:30pm 16.8 16.9 15.5 92 0.8 N 9 15 5 8 1003.8 1003.8 4.6
16/03:00pm 15.7 14.2 14.2 91 0.9 WSW 15 17 8 9 1003.6 1003.6 4.6
16/02:46pm 15.8 15.4 14.2 90 0.9 WSW 9 15 5 8 1003.9 1003.9 4.6
16/02:32pm 15.8 13.4 14.5 92 0.7 NW 20 26 11 14 1004.2 1004.2 4.0
16/02:30pm 15.8 13.4 14.3 91 0.9 NW 20 30 11 16 1004.4 1004.4 3.6
16/02:00pm 17.6 16.6 16.6 94 0.6 NNW 17 22 9 12 1005.3 1005.3 0.8
16/01:57pm 17.7 16.7 16.7 94 0.6 NW 17 20 9 11 1005.3 1005.3 0.6
16/01:30pm 18.1 17.0 16.3 89 1.1 WNW 17 22 9 12 1004.6 1004.6 0.0
16/01:29pm 18.2 17.1 16.4 89 1.1 WNW 17 22 9 12 1004.5 1004.5 0.0
16/01:00pm 19.4 17.3 16.1 81 2.0 WSW 22 32 12 17 1004.1 1004.1 0.0
16/12:30pm 21.1 18.4 16.7 76 2.7 WSW 26 33 14 18 1003.9 1003.9 0.0
16/12:00pm 21.0 19.4 16.6 76 2.7 WSW 20 26 11 14 1003.9 1003.9 0.0
16/11:30am 22.1 20.8 17.2 74 3.0 WSW 20 30 11 16 1004.1 1004.1 0.0
16/11:00am 23.2 23.0 15.8 63 4.5 N 11 17 6 9 1004.0 1004.0 0.0
16/10:30am 23.2 23.0 16.7 67 4.0 N 13 19 7 10 1004.2 1004.2 0.0
16/10:00am 21.7 21.3 16.2 71 3.3 NNE 13 19 7 10 1004.4 1004.4 0.0
16/09:30am 22.0 22.1 17.4 75 2.8 NNE 13 20 7 11 1004.6 1004.6 0.0
16/09:00am 19.7 19.5 16.7 83 1.8 NNE 13 19 7 10 1004.8 1004.8 1.8
16/08:30am 19.2 19.5 17.0 87 1.3 NNE 11 17 6 9 1005.1 1005.1 1.8
16/08:00am 18.3 18.9 16.8 91 0.9 NNE 9 13 5 7 1005.3 1005.3 1.6
16/07:30am 17.8 17.9 16.5 92 0.8 ENE 11 15 6 8 1005.5 1005.5 1.6
16/07:00am 17.9 17.6 16.4 91 0.9 NNE 13 17 7 9 1005.5 1005.5 1.6
16/06:30am 17.7 17.8 16.6 93 0.7 NNE 11 13 6 7 1005.4 1005.4 1.6
16/06:00am 17.5 17.9 16.4 93 0.7 N 9 13 5 7 1005.1 1005.1 1.6
16/05:30am 17.3 19.3 16.0 92 0.8 CALM 0 6 0 3 1004.7 1004.7 1.6
16/05:00am 17.6 18.6 16.3 92 0.8 E 6 7 3 4 1004.5 1004.5 1.4
16/04:30am 17.3 17.4 15.5 89 1.1 SSE 9 11 5 6 1004.4 1004.4 1.4
16/04:00am 17.8 18.4 15.8 88 1.2 NNW 7 9 4 5 1004.2 1004.2 1.2
16/03:30am 17.4 18.1 15.6 89 1.1 NW 6 11 3 6 1004.6 1004.6 1.2
16/03:00am 17.8 18.8 15.4 86 1.4 NW 4 6 2 3 1004.6 1004.6 1.2
16/02:30am 17.8 17.2 15.6 87 1.3 NNW 13 15 7 8 1005.2 1005.2 1.2
16/02:00am 18.2 19.4 15.8 86 1.4 ESE 4 7 2 4 1005.2 1005.2 1.2
16/01:30am 18.6 19.0 16.2 86 1.4 SE 9 13 5 7 1005.3 1005.3 1.2
16/01:00am 19.0 20.1 17.1 89 1.2 SSE 7 11 4 6 1005.6 1005.6 1.2
16/12:30am 18.9 19.4 16.5 86 1.4 SE 9 11 5 6 1005.8 1005.8 1.2
16/12:00am 19.2 20.1 16.6 85 1.6 ESE 7 11 4 6 1006.3 1006.3 1.2
 
Date/Time
EDT
Temp
°C
App
Temp
°C
Dew
Point
°C
Rel
Hum
%
Delta-T
°C
Wind Press
QNH
hPa
Press
MSL
hPa
Rain since
9am
mm
Dir  Spd
km/h
Gust
km/h
Spd
kts
Gust
kts
15/11:30pm 19.6 19.6 17.2 86 1.5 SE 13 17 7 9 1006.3 1006.3 1.2
15/11:00pm 19.7 20.2 17.5 87 1.3 SSW 11 13 6 7 1007.0 1007.0 1.2
15/10:30pm 19.8 20.6 17.4 86 1.5 SE 9 11 5 6 1007.5 1007.5 1.2
15/10:00pm 19.8 20.5 17.0 84 1.7 SSE 9 11 5 6 1007.6 1007.6 1.2
15/09:30pm 19.5 20.2 17.1 86 1.5 S 9 11 5 6 1007.6 1007.6 1.0
15/09:00pm 19.8 19.6 16.6 82 1.9 S 13 19 7 10 1007.4 1007.4 1.0
15/08:30pm 20.9 21.0 16.5 76 2.7 S 11 15 6 8 1007.4 1007.4 1.0
15/08:00pm 21.1 21.3 16.7 76 2.7 SE 11 17 6 9 1007.3 1007.3 1.0
15/07:30pm 21.4 20.6 16.1 72 3.2 SSE 15 22 8 12 1007.2 1007.2 1.0
15/07:00pm 21.9 21.5 16.2 70 3.5 SSE 13 20 7 11 1007.0 1007.0 1.0
15/06:30pm 22.5 22.3 16.8 70 3.5 SE 13 19 7 10 1007.1 1007.1 1.0
15/06:00pm 21.8 21.5 16.5 72 3.2 SSE 13 15 7 8 1007.0 1007.0 1.0
15/05:30pm 22.5 21.6 16.8 70 3.5 SSE 17 28 9 15 1007.0 1007.0 1.0
15/05:00pm 21.2 20.3 16.8 76 2.7 SSE 17 20 9 11 1007.1 1007.1 1.0
15/04:30pm 22.4 21.6 16.2 68 3.8 SSE 15 22 8 12 1007.4 1007.4 1.0
15/04:00pm 22.3 21.3 16.6 70 3.5 SE 17 22 9 12 1007.4 1007.4 1.0
15/03:30pm 21.2 19.1 16.2 73 3.0 SSE 22 30 12 16 1007.9 1007.9 1.0
15/03:00pm 20.3 19.6 16.5 79 2.3 SSE 15 20 8 11 1008.5 1008.5 1.0
15/02:30pm 20.6 19.8 16.0 75 2.8 SE 15 22 8 12 1008.5 1008.5 1.0
15/02:00pm 20.9 19.3 16.1 74 2.9 SE 19 24 10 13 1008.5 1008.5 1.0
15/01:30pm 20.7 18.7 15.5 72 3.1 SSE 20 28 11 15 1008.3 1008.3 1.0
15/01:00pm 20.4 18.0 15.4 73 3.0 SSE 22 32 12 17 1008.9 1008.9 1.0
15/12:30pm 20.9 18.4 16.1 74 2.9 SE 24 32 13 17 1009.2 1009.2 1.0
15/12:00pm 20.0 18.1 15.8 77 2.5 SSE 20 28 11 15 1009.8 1009.8 1.0
15/11:30am 18.7 17.1 16.5 87 1.3 SE 20 26 11 14 1010.3 1010.3 1.0
15/11:00am 18.1 16.3 15.9 87 1.3 SSE 20 28 11 15 1010.7 1010.7 1.0
15/10:30am 18.1 16.3 16.1 88 1.2 SSE 20 26 11 14 1010.9 1010.9 0.8
15/10:00am 18.0 16.0 15.6 86 1.4 SSE 20 28 11 15 1011.7 1011.7 0.4
15/09:30am 19.1 17.8 15.8 81 2.0 SSE 17 22 9 12 1011.7 1011.7 0.0
15/09:00am 18.5 16.3 14.8 79 2.2 S 20 30 11 16 1011.8 1011.8 0.6
15/08:30am 18.7 16.9 14.4 76 2.5 SSE 17 22 9 12 1012.0 1012.0 0.2
15/08:00am 18.6 18.2 15.3 81 1.9 SSE 11 20 6 11 1011.9 1011.9 0.2
15/07:30am 18.0 17.0 14.5 80 2.0 ESE 13 17 7 9 1011.8 1011.8 0.2
15/07:00am 17.7 16.4 14.8 83 1.7 SSE 15 20 8 11 1011.7 1011.7 0.2
15/06:30am 17.4 16.6 15.0 86 1.4 SE 13 19 7 10 1011.7 1011.7 0.2
15/06:00am 17.3 16.4 14.9 86 1.4 SE 13 17 7 9 1011.6 1011.6 0.2
15/05:30am 17.4 16.2 15.0 86 1.4 SE 15 17 8 9 1011.7 1011.7 0.2
15/05:00am 17.8 17.4 15.2 85 1.5 SE 11 15 6 8 1011.6 1011.6 0.2
15/04:30am 18.5 17.6 14.8 79 2.2 SSE 13 17 7 9 1011.5 1011.5 0.2
15/04:00am 18.7 18.8 14.0 74 2.7 S 6 9 3 5 1011.7 1011.7 0.2
15/03:30am 18.5 17.9 14.6 78 2.3 ESE 11 15 6 8 1011.8 1011.8 0.2
15/03:00am 18.7 17.9 14.0 74 2.7 SE 11 15 6 8 1011.8 1011.8 0.2
15/02:30am 19.4 19.3 14.0 71 3.1 ESE 7 9 4 5 1012.2 1012.2 0.2
15/02:00am 19.5 18.5 13.4 68 3.5 ESE 11 15 6 8 1012.5 1012.5 0.2
15/01:30am 19.8 19.8 13.5 67 3.6 ENE 6 9 3 5 1012.7 1012.7 0.2
15/01:00am 19.4 19.0 14.0 71 3.1 E 9 13 5 7 1012.7 1012.7 0.2
15/12:30am 18.2 18.5 15.1 82 1.8 E 7 11 4 6 1012.6 1012.6 0.2
15/12:19am 18.1 18.7 15.4 84 1.6 SSE 6 7 3 4 1012.6 1012.6 0.2
15/12:07am 17.9 18.6 15.5 86 1.4 W 6 7 3 4 1012.5 1012.5 0.2
15/12:00am 17.9 18.6 15.5 86 1.4 WNW 6 7 3 4 1012.6 1012.6 0.2
 
Date/Time
EDT
Temp
°C
App
Temp
°C
Dew
Point
°C
Rel
Hum
%
Delta-T
°C
Wind Press
QNH
hPa
Press
MSL
hPa
Rain since
9am
mm
Dir  Spd
km/h
Gust
km/h
Spd
kts
Gust
kts
14/11:30pm 17.8 18.2 15.2 85 1.5 WNW 7 11 4 6 1012.8 1012.8 0.2
14/11:00pm 17.2 17.8 15.2 88 1.2 SW 6 7 3 4 1012.7 1012.7 0.2
14/10:30pm 17.1 18.0 15.1 88 1.2 NNW 4 11 2 6 1012.6 1012.6 0.2
14/10:00pm 17.4 17.5 15.6 89 1.1 WNW 9 13 5 7 1012.3 1012.3 0.2
14/09:30pm 17.3 17.6 15.1 87 1.3 NW 7 11 4 6 1012.1 1012.1 0.2
14/09:13pm 17.5 17.5 15.1 86 1.4 NW 9 11 5 6 1011.8 1011.8 0.2
14/09:00pm 17.6 17.5 14.9 84 1.6 NW 9 11 5 6 1011.5 1011.5 0.2
14/08:30pm 18.4 17.6 15.1 81 1.9 NW 13 15 7 8 1011.1 1011.1 0.2
14/08:00pm 19.6 18.8 15.0 75 2.7 WNW 13 15 7 8 1010.8 1010.8 0.2
14/07:30pm 20.9 19.3 15.0 69 3.5 NW 17 20 9 11 1010.7 1010.7 0.2
14/07:00pm 20.5 18.6 15.1 71 3.2 NNW 19 22 10 12 1010.6 1010.6 0.2
14/06:30pm 20.8 18.8 15.4 71 3.2 NNW 20 24 11 13 1010.1 1010.1 0.2
14/06:00pm 22.5 21.6 14.9 62 4.5 NNW 13 15 7 8 1009.6 1009.6 0.2
14/05:30pm 24.2 22.4 13.4 51 6.3 WSW 15 24 8 13 1009.6 1009.6 0.2
14/05:00pm 26.4 22.9 10.9 38 8.8 SSW 20 28 11 15 1009.7 1009.7 0.2
14/04:30pm 26.1 23.2 12.9 44 7.7 SW 20 28 11 15 1009.8 1009.8 0.2
14/04:00pm 26.9 22.3 9.7 34 9.5 WSW 24 32 13 17 1009.8 1009.8 0.2
14/03:30pm 26.3 21.7 9.6 35 9.2 WSW 24 30 13 16 1009.8 1009.8 0.2
14/03:00pm 26.1 20.8 9.9 36 9.0 WSW 28 33 15 18 1009.8 1009.8 0.2
14/02:30pm 26.7 23.3 12.4 41 8.3 WSW 22 28 12 15 1009.9 1009.9 0.2
14/02:00pm 26.4 22.3 11.3 39 8.6 WSW 24 30 13 16 1010.1 1010.1 0.2
14/01:30pm 26.3 22.6 12.7 43 7.9 WSW 24 30 13 16 1010.1 1010.1 0.2
14/01:00pm 26.1 22.2 12.2 42 8.0 WSW 24 32 13 17 1010.2 1010.2 0.2
14/12:30pm 26.0 22.8 13.2 45 7.5 WSW 22 26 12 14 1010.2 1010.2 0.2
14/12:00pm 27.0 24.9 12.3 40 8.5 SSW 15 20 8 11 1010.1 1010.1 0.2
14/11:30am 25.6 22.6 10.6 39 8.4 S 17 20 9 11 1010.1 1010.1 0.2
14/11:00am 24.2 22.1 11.2 44 7.3 SSE 13 22 7 12 1010.1 1010.1 0.2
14/10:30am 23.6 20.8 11.3 46 6.9 SSE 17 20 9 11 1010.1 1010.1 0.0
14/10:00am 23.4 21.7 13.6 54 5.7 SSE 15 20 8 11 1010.2 1010.2 0.0
14/09:30am 22.6 21.6 13.4 56 5.3 S 11 15 6 8 1010.1 1010.1 0.0
14/09:00am 22.0 21.3 13.1 57 5.1 SE 9 13 5 7 1009.9 1009.9 1.6
14/08:30am 22.0 21.4 13.6 59 4.9 ESE 9 13 5 7 1009.7 1009.7 1.6
14/08:00am 20.4 20.2 13.6 65 3.9 ESE 7 9 4 5 1009.6 1009.6 1.6

Other Formats:

Comma delimited format used in spreadsheet applications
http://www.bom.gov.au/fwo/IDT60801/IDT60801.94956.axf

JavaScript Object Notation format (JSON) in row-major order
http://www.bom.gov.au/fwo/IDT60801/IDT60801.94956.json